createdAt,value
2023-10-06T00:00:11.215Z,5.07
2023-10-06T00:02:59.055Z,3.87
2023-10-06T00:05:54.472Z,3.60
2023-10-06T00:08:42.006Z,5.87
2023-10-06T00:11:30.419Z,4.80
2023-10-06T00:14:40.031Z,4.73
2023-10-06T00:17:34.838Z,4.43
2023-10-06T00:20:28.027Z,4.60
2023-10-06T00:23:15.954Z,5.47
2023-10-06T00:26:05.515Z,4.20
2023-10-06T00:28:52.382Z,3.87
2023-10-06T00:31:40.981Z,5.10
2023-10-06T00:34:32.147Z,5.33
2023-10-06T00:37:23.511Z,4.20
2023-10-06T00:40:13.272Z,4.10
2023-10-06T00:43:02.430Z,5.07
2023-10-06T00:45:49.350Z,4.60
2023-10-06T00:48:45.869Z,4.70
2023-10-06T00:51:32.847Z,4.53
2023-10-06T00:54:20.866Z,4.27
2023-10-06T00:57:11.995Z,4.87
2023-10-06T00:59:59.946Z,6.30
2023-10-06T01:02:47.142Z,3.90
2023-10-06T01:05:35.233Z,5.57
2023-10-06T01:08:22.371Z,4.03
2023-10-06T01:11:18.192Z,4.77
2023-10-06T01:14:05.202Z,3.40
2023-10-06T01:16:52.281Z,7.10
2023-10-06T01:19:48.501Z,3.97
2023-10-06T01:22:43.020Z,4.67
2023-10-06T01:25:36.372Z,4.20
2023-10-06T01:28:24.913Z,5.97
2023-10-06T01:31:14.018Z,4.57
2023-10-06T01:34:00.805Z,4.40
2023-10-06T01:36:57.329Z,5.93
2023-10-06T01:39:45.752Z,5.23
2023-10-06T01:42:32.536Z,5.83
2023-10-06T01:45:22.783Z,4.80
2023-10-06T01:48:15.418Z,5.30
2023-10-06T01:51:02.449Z,4.13
2023-10-06T01:53:51.107Z,4.17
2023-10-06T01:56:38.314Z,5.80
2023-10-06T01:59:26.268Z,5.83
2023-10-06T02:02:14.998Z,6.13
2023-10-06T02:05:03.107Z,6.60
2023-10-06T02:07:49.988Z,5.60
2023-10-06T02:10:41.309Z,7.90
2023-10-06T02:13:30.999Z,6.93
2023-10-06T02:16:21.467Z,6.93
2023-10-06T02:19:17.043Z,9.03
2023-10-06T02:22:07.921Z,9.50
2023-10-06T02:24:54.852Z,9.53
2023-10-06T02:27:45.724Z,8.07
2023-10-06T02:30:38.223Z,8.70
2023-10-06T02:33:25.802Z,10.47
2023-10-06T02:36:24.446Z,8.00
2023-10-06T02:39:17.126Z,7.30
2023-10-06T02:42:09.585Z,8.80
2023-10-06T02:44:56.458Z,8.27
2023-10-06T02:47:43.926Z,9.60
2023-10-06T02:50:34.717Z,8.83
2023-10-06T02:53:22.412Z,10.03
2023-10-06T02:56:10.350Z,12.83
2023-10-06T02:59:00.292Z,11.50
2023-10-06T03:01:57.116Z,9.40
2023-10-06T03:04:45.223Z,9.07
2023-10-06T03:07:32.040Z,8.67
2023-10-06T03:10:19.780Z,5.30
2023-10-06T03:13:09.360Z,6.70
2023-10-06T03:15:56.220Z,7.73
2023-10-06T03:18:45.592Z,8.17
2023-10-06T03:21:33.791Z,11.03
2023-10-06T03:24:32.144Z,9.40
2023-10-06T03:27:19.814Z,8.83
2023-10-06T03:30:19.905Z,11.57
2023-10-06T03:33:12.917Z,7.47
2023-10-06T03:35:59.771Z,7.50
2023-10-06T03:38:57.016Z,8.13
2023-10-06T03:41:47.940Z,9.20
2023-10-06T03:44:35.955Z,9.00
2023-10-06T03:47:22.839Z,6.40
2023-10-06T03:50:10.071Z,8.77
2023-10-06T03:52:56.908Z,8.87
2023-10-06T03:55:46.356Z,9.40
2023-10-06T03:58:33.439Z,8.43
2023-10-06T04:01:27.410Z,6.03
2023-10-06T04:04:16.435Z,11.37
2023-10-06T04:07:04.528Z,7.60
2023-10-06T04:09:51.362Z,6.47
2023-10-06T04:12:38.258Z,8.00
2023-10-06T04:15:27.729Z,8.23
2023-10-06T04:18:17.977Z,6.20
2023-10-06T04:21:05.575Z,6.93
2023-10-06T04:23:52.381Z,8.00
2023-10-06T04:26:40.771Z,5.40
2023-10-06T04:29:36.761Z,7.70
2023-10-06T04:32:23.546Z,6.73
2023-10-06T04:35:20.653Z,7.80
2023-10-06T04:38:13.932Z,6.10
2023-10-06T04:41:01.059Z,8.13
2023-10-06T04:43:48.059Z,10.17
2023-10-06T04:46:36.329Z,8.27
2023-10-06T04:49:23.418Z,7.13
2023-10-06T04:52:10.260Z,8.47
2023-10-06T04:54:57.024Z,6.93
2023-10-06T04:57:44.245Z,5.97
2023-10-06T05:00:31.024Z,5.47
2023-10-06T05:03:17.957Z,7.23
2023-10-06T05:06:10.673Z,5.27
2023-10-06T05:08:57.582Z,5.73
2023-10-06T05:11:44.846Z,5.13
2023-10-06T05:14:35.464Z,3.63
2023-10-06T05:17:23.105Z,5.57
2023-10-06T05:20:20.594Z,6.67
2023-10-06T05:23:16.092Z,4.90
2023-10-06T05:26:09.671Z,6.47
2023-10-06T05:28:56.569Z,5.73
2023-10-06T05:31:43.590Z,6.53
2023-10-06T05:34:31.057Z,6.70
2023-10-06T05:37:17.963Z,5.73
2023-10-06T05:40:05.453Z,6.03
2023-10-06T05:42:52.417Z,5.47
2023-10-06T05:45:58.237Z,5.13
2023-10-06T05:48:46.166Z,5.00
2023-10-06T05:51:34.973Z,5.47
2023-10-06T05:54:24.664Z,4.73
2023-10-06T05:57:11.808Z,5.30
2023-10-06T05:59:58.657Z,5.40
2023-10-06T06:02:48.592Z,6.63
2023-10-06T06:05:41.583Z,5.83
2023-10-06T06:08:31.452Z,6.00
2023-10-06T06:11:19.451Z,4.73
2023-10-06T06:14:16.908Z,5.07
2023-10-06T06:17:06.801Z,4.60
2023-10-06T06:20:04.576Z,4.50
2023-10-06T06:22:59.639Z,5.73
2023-10-06T06:25:46.672Z,5.83
2023-10-06T06:28:33.536Z,5.00
2023-10-06T06:31:21.630Z,6.97
2023-10-06T06:34:08.439Z,5.93
2023-10-06T06:36:55.284Z,6.93
2023-10-06T06:39:45.587Z,6.03
2023-10-06T06:42:32.479Z,4.57
2023-10-06T06:45:25.330Z,6.30
2023-10-06T06:48:15.312Z,6.57
2023-10-06T06:51:02.228Z,5.87
2023-10-06T06:53:49.079Z,11.17
2023-10-06T06:56:36.301Z,7.17
2023-10-06T06:59:23.817Z,8.53
2023-10-06T07:02:11.122Z,6.03
2023-10-06T07:04:59.191Z,5.87
2023-10-06T07:07:48.133Z,5.70
2023-10-06T07:10:44.689Z,6.13
2023-10-06T07:13:32.431Z,7.57
2023-10-06T07:16:19.293Z,4.10
2023-10-06T07:19:07.798Z,6.90
2023-10-06T07:21:54.833Z,8.63
2023-10-06T07:24:41.611Z,5.13
2023-10-06T07:27:35.240Z,6.93
2023-10-06T07:30:24.016Z,7.87
2023-10-06T07:33:10.995Z,7.60
2023-10-06T07:35:59.025Z,6.70
2023-10-06T07:38:45.914Z,6.73
2023-10-06T07:41:33.936Z,7.47
2023-10-06T07:44:22.303Z,7.50
2023-10-06T07:47:09.282Z,6.53
2023-10-06T07:49:56.654Z,6.43
2023-10-06T07:52:44.124Z,8.43
2023-10-06T07:55:33.320Z,7.77
2023-10-06T07:58:20.417Z,6.20
2023-10-06T08:01:09.374Z,8.93
2023-10-06T08:03:56.442Z,7.53
2023-10-06T08:06:43.221Z,9.90
2023-10-06T08:09:33.757Z,8.43
2023-10-06T08:12:20.597Z,8.30
2023-10-06T08:15:10.714Z,7.83
2023-10-06T08:17:57.879Z,7.03
2023-10-06T08:20:45.478Z,9.13
2023-10-06T08:23:36.750Z,9.33
2023-10-06T08:26:24.228Z,9.40
2023-10-06T08:29:11.117Z,9.70
2023-10-06T08:31:59.161Z,12.93
2023-10-06T08:34:47.511Z,9.43
2023-10-06T08:37:34.458Z,11.97
2023-10-06T08:40:24.180Z,11.63
2023-10-06T08:43:11.634Z,13.83
2023-10-06T08:46:01.514Z,11.10
2023-10-06T08:48:48.762Z,10.47
2023-10-06T08:51:35.592Z,11.80
2023-10-06T08:54:22.859Z,11.57
2023-10-06T08:57:13.109Z,7.93
2023-10-06T09:00:00.942Z,9.90
2023-10-06T09:02:48.770Z,9.73
2023-10-06T09:05:42.458Z,11.63
2023-10-06T09:08:42.081Z,7.70
2023-10-06T09:11:42.061Z,12.97
2023-10-06T09:14:29.927Z,9.83
2023-10-06T09:17:17.363Z,7.67
2023-10-06T09:20:13.380Z,12.50
2023-10-06T09:23:05.953Z,11.30
2023-10-06T09:25:54.446Z,8.73
2023-10-06T09:28:54.269Z,15.57
2023-10-06T09:31:48.048Z,11.07
2023-10-06T09:34:36.653Z,9.23
2023-10-06T09:37:23.493Z,11.67
2023-10-06T09:40:21.849Z,14.17
2023-10-06T09:43:08.839Z,11.53
2023-10-06T09:45:56.745Z,13.77
2023-10-06T09:48:46.957Z,15.17
2023-10-06T09:51:34.398Z,13.30
2023-10-06T09:54:21.620Z,9.83
2023-10-06T09:57:08.548Z,13.07
2023-10-06T09:59:56.355Z,10.97
2023-10-06T10:02:51.919Z,12.40
2023-10-06T10:05:39.477Z,10.43
2023-10-06T10:08:26.419Z,11.00
2023-10-06T10:11:40.358Z,10.87
2023-10-06T10:14:50.673Z,10.60
2023-10-06T10:18:10.869Z,9.53
2023-10-06T10:21:01.324Z,13.77
2023-10-06T10:23:49.437Z,10.97
2023-10-06T10:26:37.204Z,12.00
2023-10-06T10:29:25.538Z,11.63
2023-10-06T10:32:14.493Z,15.00
2023-10-06T10:35:15.709Z,9.70
2023-10-06T10:38:07.819Z,9.20
2023-10-06T10:40:55.162Z,12.73
2023-10-06T10:43:46.836Z,14.20
2023-10-06T10:46:54.305Z,14.77
2023-10-06T10:49:41.637Z,12.37
2023-10-06T10:52:28.645Z,12.10
2023-10-06T10:55:17.610Z,17.23
2023-10-06T10:58:05.640Z,11.13
2023-10-06T11:01:31.417Z,12.13
2023-10-06T11:04:27.903Z,13.53
2023-10-06T11:07:17.512Z,13.23
2023-10-06T11:10:05.865Z,10.87
2023-10-06T11:13:11.858Z,10.90
2023-10-06T11:16:05.376Z,10.87
2023-10-06T11:18:52.137Z,13.07
2023-10-06T11:21:38.965Z,12.30
2023-10-06T11:24:26.895Z,14.63
2023-10-06T11:27:15.935Z,9.63
2023-10-06T11:30:09.176Z,12.20
2023-10-06T11:32:59.195Z,13.07
2023-10-06T11:35:46.479Z,15.37
2023-10-06T11:38:33.322Z,12.10
2023-10-06T11:41:26.214Z,10.30
2023-10-06T11:44:13.002Z,15.17
2023-10-06T11:47:00.799Z,14.00
2023-10-06T11:49:54.884Z,12.17
2023-10-06T11:52:46.174Z,11.53
2023-10-06T11:55:35.314Z,12.47
2023-10-06T11:58:41.056Z,12.07
2023-10-06T12:01:37.615Z,11.20
2023-10-06T12:04:34.212Z,12.20
2023-10-06T12:07:24.958Z,10.30
2023-10-06T12:10:11.765Z,11.37
2023-10-06T12:12:58.695Z,9.20
2023-10-06T12:15:46.058Z,9.60
2023-10-06T12:18:36.644Z,12.40
2023-10-06T12:21:23.958Z,12.93
2023-10-06T12:24:12.909Z,11.63
2023-10-06T12:26:59.720Z,10.60
2023-10-06T12:29:49.766Z,14.67
2023-10-06T12:32:36.716Z,12.40
2023-10-06T12:35:23.890Z,14.07
2023-10-06T12:38:10.753Z,11.47
2023-10-06T12:40:57.772Z,13.17
2023-10-06T12:43:48.643Z,11.87
2023-10-06T12:46:38.462Z,11.40
2023-10-06T12:49:26.349Z,11.97
2023-10-06T12:52:15.304Z,12.57
2023-10-06T12:55:06.716Z,11.97
2023-10-06T12:57:55.521Z,13.83
2023-10-06T13:00:42.588Z,15.07
2023-10-06T13:03:30.652Z,13.43
2023-10-06T13:06:17.630Z,12.33
2023-10-06T13:09:04.879Z,14.03
2023-10-06T13:11:51.643Z,14.70
2023-10-06T13:14:39.515Z,18.30
2023-10-06T13:17:28.838Z,16.30
2023-10-06T13:20:17.315Z,13.43
2023-10-06T13:23:06.207Z,11.67
2023-10-06T13:25:54.531Z,13.60
2023-10-06T13:28:43.190Z,12.87
2023-10-06T13:31:30.088Z,13.50
2023-10-06T13:34:18.561Z,16.53
2023-10-06T13:37:05.380Z,13.77
2023-10-06T13:39:52.106Z,14.33
2023-10-06T13:42:46.925Z,12.90
2023-10-06T13:45:33.789Z,14.97
2023-10-06T13:48:24.078Z,14.43
2023-10-06T13:51:11.168Z,16.83
2023-10-06T13:53:57.974Z,13.63
2023-10-06T13:56:44.710Z,10.30
2023-10-06T13:59:31.858Z,12.00
2023-10-06T14:02:18.777Z,17.27
2023-10-06T14:05:06.167Z,12.90
2023-10-06T14:07:53.918Z,12.90
2023-10-06T14:10:41.455Z,11.47
2023-10-06T14:13:29.686Z,11.40
2023-10-06T14:16:23.345Z,13.13
2023-10-06T14:19:11.607Z,16.90
2023-10-06T14:21:58.402Z,10.87
2023-10-06T14:24:46.257Z,11.27
2023-10-06T14:27:33.107Z,14.60
2023-10-06T14:30:22.241Z,14.17
2023-10-06T14:33:12.998Z,14.03
2023-10-06T14:35:59.830Z,11.33
2023-10-06T14:38:46.619Z,12.40
2023-10-06T14:41:51.859Z,12.10
2023-10-06T14:44:56.955Z,10.90
2023-10-06T14:47:43.949Z,10.97
2023-10-06T14:50:30.915Z,13.60
2023-10-06T14:53:17.867Z,12.10
2023-10-06T14:56:05.387Z,11.53
2023-10-06T14:58:53.586Z,11.80
2023-10-06T15:01:41.984Z,10.60
2023-10-06T15:04:30.770Z,10.60
2023-10-06T15:07:17.548Z,11.13
2023-10-06T15:10:05.512Z,12.33
2023-10-06T15:12:52.605Z,11.77
2023-10-06T15:15:51.621Z,15.50
2023-10-06T15:18:38.595Z,12.87
2023-10-06T15:21:26.511Z,9.60
2023-10-06T15:24:15.624Z,11.80
2023-10-06T15:27:07.954Z,11.40
2023-10-06T15:29:55.047Z,10.03
2023-10-06T15:32:42.460Z,11.87
2023-10-06T15:35:37.260Z,10.93
2023-10-06T15:38:24.287Z,11.37
2023-10-06T15:41:11.859Z,10.23
2023-10-06T15:44:02.767Z,12.83
2023-10-06T15:46:51.315Z,12.13
2023-10-06T15:49:38.571Z,9.27
2023-10-06T15:52:25.429Z,12.10
2023-10-06T15:55:12.435Z,8.87
2023-10-06T15:57:59.204Z,13.80
2023-10-06T16:00:47.337Z,10.83
2023-10-06T16:03:35.594Z,11.70
2023-10-06T16:06:22.886Z,12.60
2023-10-06T16:09:10.582Z,11.43
2023-10-06T16:11:58.682Z,10.83
2023-10-06T16:14:45.622Z,11.30
2023-10-06T16:17:34.768Z,12.33
2023-10-06T16:20:24.026Z,11.00
2023-10-06T16:23:10.969Z,12.63
2023-10-06T16:25:58.495Z,11.70
2023-10-06T16:28:45.381Z,12.13
2023-10-06T16:31:33.323Z,12.60
2023-10-06T16:34:20.266Z,16.00
2023-10-06T16:37:07.136Z,11.03
2023-10-06T16:39:53.991Z,12.57
2023-10-06T16:42:42.288Z,11.63
2023-10-06T16:45:29.589Z,12.47
2023-10-06T16:48:16.396Z,17.30
2023-10-06T16:51:06.236Z,18.70
2023-10-06T16:53:54.142Z,14.17
2023-10-06T16:56:41.016Z,11.90
2023-10-06T16:59:28.140Z,16.50
2023-10-06T17:02:17.327Z,11.70
2023-10-06T17:05:05.408Z,12.20
2023-10-06T17:07:52.567Z,14.73
2023-10-06T17:10:39.380Z,12.37
2023-10-06T17:13:27.885Z,14.60
2023-10-06T17:16:15.277Z,15.30
2023-10-06T17:19:02.465Z,12.53
2023-10-06T17:21:49.303Z,12.60
2023-10-06T17:24:36.325Z,13.60
2023-10-06T17:27:23.206Z,12.13
2023-10-06T17:30:12.684Z,10.77
2023-10-06T17:32:59.616Z,14.70
2023-10-06T17:35:47.588Z,9.83
2023-10-06T17:38:34.717Z,10.07
2023-10-06T17:41:22.085Z,11.13
2023-10-06T17:44:10.416Z,8.13
2023-10-06T17:46:57.424Z,8.03
2023-10-06T17:49:45.685Z,10.07
2023-10-06T17:52:32.687Z,7.47
2023-10-06T17:55:20.247Z,8.27
2023-10-06T17:58:07.176Z,10.17
2023-10-06T18:00:54.007Z,11.90
2023-10-06T18:03:41.064Z,12.60
2023-10-06T18:06:27.952Z,12.27
2023-10-06T18:09:14.822Z,11.57
2023-10-06T18:12:14.952Z,14.03
2023-10-06T18:15:09.300Z,14.13
2023-10-06T18:17:57.915Z,10.40
2023-10-06T18:20:50.950Z,13.63
2023-10-06T18:23:37.815Z,10.23
2023-10-06T18:26:25.255Z,12.97
2023-10-06T18:29:12.304Z,11.93
2023-10-06T18:32:00.125Z,8.67
2023-10-06T18:34:47.114Z,13.80
2023-10-06T18:37:34.011Z,9.83
2023-10-06T18:40:20.842Z,12.07
2023-10-06T18:43:14.611Z,13.10
2023-10-06T18:46:01.866Z,12.33
2023-10-06T18:48:50.898Z,9.27
2023-10-06T18:51:38.064Z,9.87
2023-10-06T18:54:24.893Z,11.37
2023-10-06T18:57:11.938Z,11.80
2023-10-06T18:59:58.661Z,10.47
2023-10-06T19:02:48.307Z,10.53
2023-10-06T19:05:35.396Z,12.90
2023-10-06T19:08:22.220Z,11.00
2023-10-06T19:11:11.148Z,11.43
2023-10-06T19:13:58.114Z,11.20
2023-10-06T19:16:45.306Z,9.23
2023-10-06T19:19:32.292Z,11.13
2023-10-06T19:22:19.640Z,9.53
2023-10-06T19:25:10.985Z,10.37
2023-10-06T19:27:58.034Z,8.20
2023-10-06T19:30:57.732Z,10.50
2023-10-06T19:33:51.798Z,10.17
2023-10-06T19:36:40.337Z,8.67
2023-10-06T19:39:29.048Z,10.20
2023-10-06T19:42:15.949Z,8.37
2023-10-06T19:45:03.658Z,12.47
2023-10-06T19:47:54.933Z,10.63
2023-10-06T19:50:43.251Z,8.97
2023-10-06T19:53:31.346Z,9.93
2023-10-06T19:56:18.305Z,10.83
2023-10-06T19:59:07.769Z,9.97
2023-10-06T20:01:55.504Z,11.93
2023-10-06T20:04:43.819Z,10.33
2023-10-06T20:07:33.352Z,14.77
2023-10-06T20:10:23.116Z,8.53
2023-10-06T20:13:09.957Z,10.07
2023-10-06T20:15:57.684Z,11.93
2023-10-06T20:18:44.585Z,12.47
2023-10-06T20:21:31.413Z,8.93
2023-10-06T20:24:18.357Z,11.63
2023-10-06T20:27:07.597Z,10.07
2023-10-06T20:29:55.098Z,7.03
2023-10-06T20:32:43.288Z,10.53
2023-10-06T20:35:31.402Z,10.53
2023-10-06T20:38:18.279Z,8.07
2023-10-06T20:41:05.085Z,8.97
2023-10-06T20:43:51.953Z,10.20
2023-10-06T20:46:40.650Z,10.63
2023-10-06T20:49:27.734Z,10.60
2023-10-06T20:52:14.617Z,11.77
2023-10-06T20:55:01.458Z,8.80
2023-10-06T20:57:49.496Z,9.90
2023-10-06T21:00:38.847Z,8.50
2023-10-06T21:03:26.951Z,10.43
2023-10-06T21:06:18.500Z,8.03
2023-10-06T21:09:05.822Z,8.73
2023-10-06T21:11:55.713Z,9.17
2023-10-06T21:14:42.450Z,7.97
2023-10-06T21:17:29.453Z,9.20
2023-10-06T21:20:17.166Z,7.80
2023-10-06T21:23:05.338Z,6.43
2023-10-06T21:25:52.470Z,6.87
2023-10-06T21:28:39.478Z,8.83
2023-10-06T21:31:27.172Z,7.80
2023-10-06T21:34:14.113Z,8.00
2023-10-06T21:37:01.978Z,7.03
2023-10-06T21:39:48.793Z,6.23
2023-10-06T21:42:35.632Z,9.20
2023-10-06T21:45:23.397Z,7.47
2023-10-06T21:48:10.285Z,7.47
2023-10-06T21:50:57.437Z,7.70
2023-10-06T21:53:45.766Z,6.97
2023-10-06T21:56:32.602Z,11.53
2023-10-06T21:59:19.377Z,9.33
2023-10-06T22:02:06.319Z,9.10
2023-10-06T22:04:54.137Z,9.07
2023-10-06T22:07:41.161Z,8.20
2023-10-06T22:10:29.027Z,7.37
2023-10-06T22:13:15.990Z,8.27
2023-10-06T22:16:03.915Z,11.37
2023-10-06T22:18:50.741Z,8.77
2023-10-06T22:21:38.039Z,7.43
2023-10-06T22:24:24.843Z,8.07
2023-10-06T22:27:11.614Z,8.85
2023-10-06T22:30:01.504Z,6.87
2023-10-06T22:32:48.861Z,7.57
2023-10-06T22:35:37.799Z,7.37
2023-10-06T22:38:24.850Z,5.93
2023-10-06T22:41:18.329Z,7.10
2023-10-06T22:44:05.479Z,6.97
2023-10-06T22:47:19.757Z,6.80
2023-10-06T22:50:07.117Z,8.73
2023-10-06T22:52:55.294Z,7.60
2023-10-06T22:55:42.375Z,8.10
2023-10-06T22:58:29.241Z,7.07
2023-10-06T23:01:16.213Z,9.43
2023-10-06T23:04:03.103Z,6.37
2023-10-06T23:06:50.031Z,7.23
2023-10-06T23:09:36.835Z,6.57
2023-10-06T23:12:23.588Z,6.87
2023-10-06T23:15:11.681Z,6.27
2023-10-06T23:17:59.875Z,8.43
2023-10-06T23:20:47.856Z,9.80
2023-10-06T23:23:37.958Z,7.03
2023-10-06T23:26:25.061Z,8.67
2023-10-06T23:29:13.433Z,6.80
2023-10-06T23:32:00.556Z,5.87
2023-10-06T23:34:47.376Z,7.20
2023-10-06T23:37:34.359Z,7.70
2023-10-06T23:40:21.110Z,7.00
2023-10-06T23:43:07.958Z,9.17
2023-10-06T23:45:57.508Z,7.03
2023-10-06T23:48:47.622Z,7.13
2023-10-06T23:51:39.861Z,6.83
2023-10-06T23:54:27.217Z,7.83
2023-10-06T23:57:17.065Z,7.63
